Time;durP1;ratioP1;P1;durP2;ratioP2;P2;SDS_P1;SDS_P2;PMS_P1;PMS_P2;Temp;Humidity;BMP_temperature;BMP_pressure;BME280_temperature;BME280_humidity;BME280_pressure;Samples;Min_cycle;Max_cycle;Signal;HPM_P1;HPM_P2
2021/08/11 00:01:25;;;;;;;7.28;4.30;;;18.30;99.90;;;;;;5031651;28;20049;-68
2021/08/11 00:03:53;;;;;;;7.60;4.05;;;18.20;99.90;;;;;;5031043;28;20041;-68
2021/08/11 00:06:20;;;;;;;7.15;4.43;;;18.10;99.90;;;;;;5035738;28;20403;-68
2021/08/11 00:08:48;;;;;;;8.30;4.13;;;18.10;99.90;;;;;;5013654;28;20069;-68
2021/08/11 00:11:15;;;;;;;9.95;4.07;;;18.10;99.90;;;;;;5034248;28;20136;-68
2021/08/11 00:13:43;;;;;;;8.18;4.30;;;18.10;99.90;;;;;;5033832;28;20046;-68
2021/08/11 00:16:10;;;;;;;7.65;4.10;;;18.10;99.90;;;;;;5034593;28;20048;-68
2021/08/11 00:18:38;;;;;;;7.43;4.30;;;18.00;99.90;;;;;;5031937;28;20050;-68
2021/08/11 00:21:06;;;;;;;7.32;4.20;;;18.00;99.90;;;;;;5025376;28;20099;-68
2021/08/11 00:23:33;;;;;;;8.05;4.68;;;18.00;99.90;;;;;;5032518;28;20420;-68
2021/08/11 00:26:00;;;;;;;8.48;4.72;;;17.90;99.90;;;;;;5033877;28;20041;-68
2021/08/11 00:28:28;;;;;;;7.63;4.85;;;18.00;99.90;;;;;;5046267;28;20300;-68
2021/08/11 00:30:55;;;;;;;9.35;4.40;;;18.00;99.90;;;;;;5039405;28;20042;-68
2021/08/11 00:33:23;;;;;;;8.90;4.93;;;18.00;99.90;;;;;;5027226;28;20048;-68
2021/08/11 00:35:51;;;;;;;8.45;4.38;;;17.90;99.90;;;;;;5028458;28;20098;-68
2021/08/11 00:38:20;;;;;;;8.27;4.75;;;17.90;99.90;;;;;;5037607;28;20056;-68
2021/08/11 00:40:48;;;;;;;11.10;4.82;;;17.90;99.90;;;;;;5029870;28;20049;-68
2021/08/11 00:43:16;;;;;;;7.78;5.03;;;17.80;99.90;;;;;;5040441;28;20077;-68
2021/08/11 00:45:48;;;;;;;8.07;4.45;;;17.80;99.90;;;;;;5012156;28;20067;-68
2021/08/11 00:48:17;;;;;;;8.15;4.30;;;17.70;99.90;;;;;;5044291;28;20041;-68
2021/08/11 00:50:44;;;;;;;7.57;4.10;;;17.70;99.90;;;;;;5029730;28;20037;-68
2021/08/11 00:53:16;;;;;;;7.47;4.60;;;17.60;99.90;;;;;;5030618;28;20083;-68
2021/08/11 00:55:44;;;;;;;7.55;4.85;;;17.60;99.90;;;;;;5015498;28;20447;-68
2021/08/11 00:58:19;;;;;;;7.18;4.45;;;17.60;99.90;;;;;;5026654;28;20045;-68
2021/08/11 01:00:50;;;;;;;7.70;4.47;;;17.60;99.90;;;;;;5030340;28;20045;-68
2021/08/11 01:03:20;;;;;;;8.20;4.63;;;17.60;99.90;;;;;;5026130;28;20577;-68
2021/08/11 01:05:52;;;;;;;10.45;5.15;;;17.60;99.90;;;;;;5014900;28;20099;-68
2021/08/11 01:08:21;;;;;;;;;;;17.60;99.90;;;;;;5020364;28;20048;-68
2021/08/11 01:10:51;;;;;;;7.20;4.57;;;17.70;99.90;;;;;;5031198;28;20004;-68
2021/08/11 01:13:21;;;;;;;7.78;4.57;;;17.60;99.90;;;;;;5035635;28;20462;-68
2021/08/11 01:15:49;;;;;;;9.23;4.65;;;17.70;99.90;;;;;;5030712;28;20574;-68
2021/08/11 01:18:22;;;;;;;9.35;4.65;;;17.70;99.90;;;;;;5033209;28;20075;-68
2021/08/11 01:21:10;;;;;;;7.85;4.30;;;17.70;99.90;;;;;;5040986;28;20107;-68
2021/08/11 01:24:01;;;;;;;8.43;4.38;;;17.70;99.90;;;;;;5031313;28;20073;-68
2021/08/11 01:27:02;;;;;;;8.75;4.70;;;17.70;99.90;;;;;;5034783;28;20385;-68
2021/08/11 01:29:48;;;;;;;7.35;4.22;;;17.70;99.90;;;;;;5024030;28;20037;-68
2021/08/11 01:32:47;;;;;;;8.43;4.50;;;17.70;99.90;;;;;;5036597;28;20041;-68
2021/08/11 01:35:19;;;;;;;9.02;4.75;;;17.70;99.90;;;;;;5022364;28;20119;-68
2021/08/11 01:37:53;;;;;;;7.68;4.43;;;17.70;99.90;;;;;;5040935;28;20044;-68
2021/08/11 01:40:31;;;;;;;9.10;5.13;;;17.60;99.90;;;;;;5041948;28;20515;-68
2021/08/11 01:43:02;;;;;;;10.15;4.70;;;17.60;99.90;;;;;;5027122;28;20049;-68
2021/08/11 01:45:36;;;;;;;11.52;5.70;;;17.60;99.90;;;;;;5037524;28;20479;-68
2021/08/11 01:48:15;;;;;;;8.77;5.22;;;17.50;99.90;;;;;;5021231;28;20107;-68
2021/08/11 01:50:46;;;;;;;8.75;4.85;;;17.50;99.90;;;;;;5028019;28;20049;-68
2021/08/11 01:53:21;;;;;;;9.30;5.03;;;17.50;99.90;;;;;;5036674;28;20056;-68
2021/08/11 01:55:57;;;;;;;8.13;4.47;;;17.40;99.90;;;;;;5030712;28;20042;-68
2021/08/11 01:58:31;;;;;;;7.88;5.15;;;17.40;99.90;;;;;;5047030;28;20112;-68
2021/08/11 02:01:03;;;;;;;8.45;4.70;;;17.40;99.90;;;;;;5046710;28;20038;-68
2021/08/11 02:03:31;;;;;;;11.55;6.60;;;17.40;99.90;;;;;;5049095;28;20048;-68
2021/08/11 02:05:59;;;;;;;8.85;5.22;;;17.40;99.90;;;;;;5043147;28;20428;-69
2021/08/11 02:08:29;;;;;;;9.15;5.18;;;17.40;99.90;;;;;;5048570;28;20045;-68
2021/08/11 02:11:00;;;;;;;10.00;5.57;;;17.40;99.90;;;;;;5046793;28;20049;-68
2021/08/11 02:13:30;;;;;;;8.65;5.10;;;17.40;99.90;;;;;;5016289;28;20044;-68
2021/08/11 02:15:58;;;;;;;9.18;5.57;;;17.40;99.90;;;;;;5014888;28;20037;-68
2021/08/11 02:18:26;;;;;;;9.18;5.10;;;17.40;99.90;;;;;;5031858;28;20120;-68
2021/08/11 02:20:58;;;;;;;9.38;5.00;;;17.40;99.90;;;;;;5033778;28;20037;-68
2021/08/11 02:23:26;;;;;;;7.85;4.88;;;17.40;99.90;;;;;;5009715;28;20072;-68
2021/08/11 02:26:32;;;;;;;6.90;4.68;;;17.40;99.90;;;;;;5021576;28;20034;-68
2021/08/11 02:29:12;;;;;;;9.07;4.97;;;17.40;99.90;;;;;;5021562;28;20123;-68
2021/08/11 02:32:09;;;;;;;8.85;5.07;;;17.40;99.90;;;;;;5034077;28;20979;-68
2021/08/11 02:34:37;;;;;;;10.05;5.97;;;17.50;99.90;;;;;;5047483;28;20033;-68
2021/08/11 02:37:14;;;;;;;8.90;5.70;;;17.50;99.90;;;;;;5037942;28;20045;-68
2021/08/11 02:39:54;;;;;;;9.02;4.80;;;17.50;99.90;;;;;;5027078;28;20060;-68
2021/08/11 02:42:27;;;;;;;10.63;5.68;;;17.50;99.90;;;;;;5033951;28;20044;-68
2021/08/11 02:44:59;;;;;;;10.10;5.20;;;17.50;99.90;;;;;;5032443;28;20048;-68
2021/08/11 02:47:32;;;;;;;7.47;5.15;;;17.60;99.90;;;;;;5022166;28;20037;-68
2021/08/11 02:50:01;;;;;;;8.70;5.10;;;17.60;99.90;;;;;;5039473;28;20373;-68
2021/08/11 02:52:32;;;;;;;9.10;5.38;;;17.60;99.90;;;;;;5015398;28;20045;-68
2021/08/11 02:55:01;;;;;;;11.63;5.10;;;17.60;99.90;;;;;;5009445;28;20076;-68
2021/08/11 02:57:30;;;;;;;7.30;4.97;;;17.60;99.90;;;;;;5024149;28;20499;-68
2021/08/11 03:00:00;;;;;;;6.75;4.68;;;17.60;99.90;;;;;;4982269;28;20100;-68
2021/08/11 03:02:27;;;;;;;8.32;4.95;;;17.60;99.90;;;;;;5028537;28;20075;-68
2021/08/11 03:04:55;;;;;;;7.75;4.78;;;17.60;99.90;;;;;;5031364;28;20045;-68
2021/08/11 03:07:22;;;;;;;8.32;5.20;;;17.70;99.90;;;;;;5028370;28;20046;-68
2021/08/11 03:09:50;;;;;;;10.57;5.10;;;17.70;99.90;;;;;;5016796;28;20076;-68
2021/08/11 03:12:18;;;;;;;7.53;4.60;;;17.70;99.90;;;;;;5031914;28;20057;-68
2021/08/11 03:14:48;;;;;;;8.60;4.75;;;17.70;99.90;;;;;;5025474;28;20437;-68
2021/08/11 03:17:16;;;;;;;8.30;5.18;;;17.70;99.90;;;;;;5017709;28;20045;-68
2021/08/11 03:19:44;;;;;;;9.30;4.90;;;17.80;99.90;;;;;;5028859;28;20063;-68
2021/08/11 03:22:14;;;;;;;7.38;4.53;;;17.70;99.90;;;;;;5031062;28;20499;-68
2021/08/11 03:24:43;;;;;;;10.07;5.15;;;17.70;99.90;;;;;;5035835;28;20512;-68
2021/08/11 03:27:10;;;;;;;8.18;4.93;;;17.70;99.90;;;;;;5040092;28;20064;-68
2021/08/11 03:29:41;;;;;;;6.85;4.47;;;17.80;99.90;;;;;;5035752;28;20041;-68
2021/08/11 03:32:08;;;;;;;11.48;4.85;;;17.80;99.90;;;;;;5025982;28;20132;-68
2021/08/11 03:34:36;;;;;;;10.70;5.05;;;17.80;99.90;;;;;;5022012;28;20053;-68
2021/08/11 03:37:05;;;;;;;10.57;5.45;;;17.80;99.90;;;;;;5030204;28;20044;-68
2021/08/11 03:39:35;;;;;;;9.25;5.35;;;17.80;99.90;;;;;;5028960;28;20128;-68
2021/08/11 03:42:03;;;;;;;10.63;5.57;;;17.90;99.90;;;;;;5028179;28;20041;-68
2021/08/11 03:44:30;;;;;;;8.90;5.22;;;17.90;99.90;;;;;;5035108;28;20472;-68
2021/08/11 03:46:57;;;;;;;8.10;5.68;;;17.90;99.90;;;;;;5029156;28;20449;-68
2021/08/11 03:49:26;;;;;;;9.15;5.60;;;17.90;99.90;;;;;;5022948;28;20048;-68
2021/08/11 03:51:53;;;;;;;10.10;5.88;;;17.90;99.90;;;;;;5032578;28;20045;-68
2021/08/11 03:54:20;;;;;;;7.97;5.60;;;17.90;99.90;;;;;;5031091;28;20120;-68
2021/08/11 03:56:48;;;;;;;11.25;5.47;;;17.90;99.90;;;;;;5013311;28;20045;-68
2021/08/11 03:59:15;;;;;;;10.68;5.80;;;17.90;99.90;;;;;;5024486;28;20085;-68
2021/08/11 04:01:44;;;;;;;8.25;5.80;;;17.90;99.90;;;;;;5047284;28;20045;-68
2021/08/11 04:04:11;;;;;;;9.85;5.80;;;18.00;99.90;;;;;;5046874;28;20063;-68
2021/08/11 04:06:38;;;;;;;8.52;5.53;;;17.90;99.90;;;;;;5044969;28;20134;-68
2021/08/11 04:09:05;;;;;;;9.68;6.30;;;18.00;99.90;;;;;;5036527;28;20037;-68
2021/08/11 04:11:33;;;;;;;10.15;6.10;;;17.90;99.90;;;;;;5039932;28;20039;-68
2021/08/11 04:14:00;;;;;;;12.48;6.00;;;18.00;99.90;;;;;;5037463;28;20037;-68
2021/08/11 04:16:27;;;;;;;8.35;5.63;;;17.90;99.90;;;;;;5033552;28;20038;-68
2021/08/11 04:18:54;;;;;;;9.02;6.30;;;17.90;99.90;;;;;;5050500;28;20048;-68
2021/08/11 04:21:21;;;;;;;11.32;6.15;;;18.00;99.90;;;;;;5050065;28;20045;-68
2021/08/11 04:23:49;;;;;;;10.45;6.22;;;18.00;99.90;;;;;;5050709;28;20045;-68
2021/08/11 04:26:16;;;;;;;10.73;6.90;;;18.00;99.90;;;;;;5050489;28;20111;-68
2021/08/11 04:28:43;;;;;;;11.77;6.03;;;18.00;99.90;;;;;;5052013;28;20044;-68
2021/08/11 04:31:11;;;;;;;11.55;6.95;;;17.90;99.90;;;;;;5043553;28;20400;-68
2021/08/11 04:33:38;;;;;;;12.45;7.90;;;17.90;99.90;;;;;;5036531;28;20034;-68
2021/08/11 04:36:05;;;;;;;14.95;9.00;;;18.00;99.90;;;;;;5033227;28;20312;-68
2021/08/11 04:38:33;;;;;;;16.35;11.00;;;17.90;99.90;;;;;;5040993;28;20037;-68
2021/08/11 04:41:38;;;;;;;16.55;10.63;;;17.90;99.90;;;;;;4990145;28;20043;-68
2021/08/11 04:44:10;;;;;;;20.20;13.50;;;17.90;99.90;;;;;;4989854;28;20354;-68
2021/08/11 04:46:41;;;;;;;18.90;13.13;;;17.90;99.90;;;;;;4990758;28;20054;-68
2021/08/11 04:49:09;;;;;;;14.65;10.50;;;18.00;99.90;;;;;;4994028;28;20545;-68
2021/08/11 04:51:36;;;;;;;15.63;10.85;;;18.00;99.90;;;;;;4991252;28;20096;-68
2021/08/11 04:54:03;;;;;;;14.10;9.80;;;18.10;99.90;;;;;;4992125;28;20077;-68
2021/08/11 04:56:30;;;;;;;14.10;10.75;;;18.10;99.90;;;;;;4997549;28;20120;-68
2021/08/11 04:58:58;;;;;;;14.23;9.48;;;18.10;99.90;;;;;;4976607;28;20054;-68
2021/08/11 05:01:25;;;;;;;12.25;9.20;;;18.20;99.90;;;;;;4991617;28;20166;-68
2021/08/11 05:03:53;;;;;;;11.80;8.57;;;18.30;99.90;;;;;;4991289;28;20113;-68
2021/08/11 05:06:20;;;;;;;13.70;8.88;;;18.30;99.90;;;;;;4993196;28;20081;-68
2021/08/11 05:08:48;;;;;;;11.80;7.82;;;18.40;99.90;;;;;;4992597;28;20046;-68
2021/08/11 05:11:16;;;;;;;10.65;7.38;;;18.40;99.90;;;;;;4988901;28;20100;-68
2021/08/11 05:13:44;;;;;;;11.88;7.03;;;18.40;99.90;;;;;;5030495;28;20037;-68
2021/08/11 05:16:11;;;;;;;9.07;6.82;;;18.50;99.90;;;;;;5031395;28;20412;-68
2021/08/11 05:18:39;;;;;;;13.65;8.23;;;18.50;99.90;;;;;;5030981;28;20068;-68
2021/08/11 05:21:06;;;;;;;11.20;6.93;;;18.60;99.90;;;;;;5030964;28;20527;-68
2021/08/11 05:23:33;;;;;;;9.88;6.60;;;18.70;99.90;;;;;;5027836;28;20451;-68
2021/08/11 05:26:00;;;;;;;10.07;6.60;;;18.80;99.90;;;;;;5037424;28;20045;-68
2021/08/11 05:28:27;;;;;;;10.07;6.70;;;19.00;99.90;;;;;;5032418;28;20408;-68
2021/08/11 05:30:55;;;;;;;9.27;6.45;;;19.10;99.90;;;;;;5030896;28;20049;-68
2021/08/11 05:33:22;;;;;;;14.15;7.57;;;19.20;99.90;;;;;;5028097;28;20073;-68
2021/08/11 05:35:49;;;;;;;13.35;7.15;;;19.30;99.90;;;;;;5038226;28;20104;-68
2021/08/11 05:38:16;;;;;;;9.50;5.85;;;19.30;99.90;;;;;;5035135;28;20444;-69
2021/08/11 05:40:44;;;;;;;13.80;8.20;;;19.40;99.90;;;;;;5031377;28;20119;-69
2021/08/11 05:43:11;;;;;;;11.95;6.47;;;19.50;99.90;;;;;;5019607;28;20044;-69
2021/08/11 05:45:38;;;;;;;9.82;6.30;;;19.60;99.90;;;;;;5017060;28;20043;-69
2021/08/11 05:48:05;;;;;;;15.93;5.88;;;19.80;99.90;;;;;;5013386;28;20061;-69
2021/08/11 05:50:33;;;;;;;10.65;6.07;;;20.00;99.90;;;;;;5016565;28;20046;-69
2021/08/11 05:53:00;;;;;;;12.70;7.18;;;20.20;99.90;;;;;;5000209;28;20041;-69
2021/08/11 05:55:27;;;;;;;11.90;6.63;;;20.40;99.90;;;;;;5026332;28;20091;-69
2021/08/11 05:57:54;;;;;;;11.05;7.18;;;20.50;99.90;;;;;;5032778;28;20033;-69
2021/08/11 06:00:22;;;;;;;12.13;8.32;;;20.60;99.90;;;;;;5032686;28;20072;-66
2021/08/11 06:02:49;;;;;;;18.40;10.07;;;20.70;99.90;;;;;;5031246;28;20046;-65
2021/08/11 06:05:29;;;;;;;13.32;8.20;;;20.80;99.90;;;;;;5030758;28;20045;-65
2021/08/11 06:07:57;;;;;;;13.73;6.50;;;20.90;99.90;;;;;;5032829;28;20124;-65
2021/08/11 06:10:24;;;;;;;12.73;7.25;;;20.80;99.90;;;;;;5024457;28;20048;-65
2021/08/11 06:12:52;;;;;;;9.52;6.20;;;20.90;99.90;;;;;;5029333;28;20060;-65
2021/08/11 06:15:22;;;;;;;10.45;6.05;;;20.90;99.90;;;;;;5032325;28;20060;-65
2021/08/11 06:17:50;;;;;;;11.35;5.90;;;20.90;99.90;;;;;;5033020;28;20079;-65
2021/08/11 06:20:19;;;;;;;11.65;6.45;;;21.00;99.90;;;;;;5019134;28;20399;-65
2021/08/11 06:22:48;;;;;;;9.13;5.90;;;21.10;99.90;;;;;;5032850;28;20051;-65
2021/08/11 06:25:16;;;;;;;12.05;6.63;;;21.20;99.90;;;;;;5023865;28;20077;-65
2021/08/11 06:27:43;;;;;;;13.55;6.43;;;21.40;99.90;;;;;;5031527;28;20060;-65
2021/08/11 06:30:11;;;;;;;13.00;6.68;;;21.40;99.90;;;;;;5034361;28;20039;-65
2021/08/11 06:32:39;;;;;;;14.20;6.85;;;21.40;99.90;;;;;;5032483;28;20068;-65
2021/08/11 06:35:07;;;;;;;15.68;6.75;;;21.30;99.90;;;;;;5033095;28;20072;-65
2021/08/11 06:37:43;;;;;;;11.60;6.43;;;21.40;99.90;;;;;;5028197;28;20167;-65
2021/08/11 06:40:11;;;;;;;14.15;7.70;;;21.40;99.90;;;;;;5028650;28;20042;-65
2021/08/11 06:42:39;;;;;;;12.77;6.28;;;21.40;99.90;;;;;;5027950;28;20128;-65
2021/08/11 06:45:10;;;;;;;10.48;6.30;;;21.20;99.90;;;;;;5022496;28;20045;-65
2021/08/11 06:47:40;;;;;;;11.23;6.50;;;21.30;99.90;;;;;;5029554;28;20033;-65
2021/08/11 06:50:08;;;;;;;10.73;6.85;;;21.40;99.90;;;;;;5028161;28;20034;-65
2021/08/11 06:55:31;;;;;;;12.40;7.15;;;21.80;99.90;;;;;;5046384;28;20450;-65
2021/08/11 06:57:59;;;;;;;11.98;6.63;;;22.10;99.90;;;;;;5042381;28;20163;-65
2021/08/11 07:00:26;;;;;;;12.55;6.32;;;22.30;99.90;;;;;;5032290;28;20128;-65
2021/08/11 07:02:54;;;;;;;16.38;7.00;;;22.50;99.90;;;;;;5033233;28;20450;-65
2021/08/11 07:05:22;;;;;;;9.77;6.35;;;22.60;99.90;;;;;;5032091;28;20053;-65
2021/08/11 07:07:49;;;;;;;11.60;6.15;;;22.60;99.90;;;;;;5031931;28;20049;-65
2021/08/11 07:10:17;;;;;;;13.95;6.70;;;22.50;99.90;;;;;;5040557;28;20064;-65
2021/08/11 07:12:45;;;;;;;13.23;6.85;;;22.40;99.90;;;;;;5036781;28;20124;-65
2021/08/11 07:15:12;;;;;;;14.02;6.88;;;22.40;99.90;;;;;;5036250;28;20500;-65
2021/08/11 07:17:56;;;;;;;13.88;7.47;;;22.40;99.90;;;;;;5041591;28;20384;-65
2021/08/11 07:20:25;;;;;;;12.40;6.47;;;22.50;99.90;;;;;;5023128;28;20750;-65
2021/08/11 07:22:55;;;;;;;13.38;6.75;;;22.40;99.90;;;;;;5037928;28;20403;-65
2021/08/11 07:25:23;;;;;;;10.30;6.05;;;22.50;99.90;;;;;;5033989;28;20527;-65
2021/08/11 07:27:51;;;;;;;11.32;5.65;;;22.40;99.90;;;;;;5034027;28;20044;-65
2021/08/11 07:30:19;;;;;;;13.82;6.00;;;22.50;99.90;;;;;;5033964;28;20041;-65
2021/08/11 07:32:47;;;;;;;10.60;5.97;;;22.60;99.90;;;;;;5019769;28;20037;-65
2021/08/11 07:35:15;;;;;;;12.57;5.95;;;22.80;99.90;;;;;;5020621;28;20114;-66
2021/08/11 07:37:54;;;;;;;12.88;6.28;;;22.80;99.90;;;;;;5027591;28;20136;-66
2021/08/11 07:40:25;;;;;;;10.20;5.35;;;22.90;99.90;;;;;;5027044;28;20053;-66
2021/08/11 07:42:54;;;;;;;11.40;5.35;;;23.10;99.90;;;;;;5014775;28;20038;-65
2021/08/11 07:45:22;;;;;;;7.90;4.82;;;23.20;99.90;;;;;;5037249;28;20084;-65
2021/08/11 07:47:54;;;;;;;9.52;5.10;;;23.40;99.90;;;;;;5028564;28;20137;-65
2021/08/11 07:50:24;;;;;;;10.02;5.43;;;23.50;99.90;;;;;;5027974;28;20052;-65
2021/08/11 07:52:52;;;;;;;8.30;5.07;;;23.60;99.90;;;;;;5028924;28;20042;-65
2021/08/11 07:55:20;;;;;;;10.15;5.28;;;23.70;99.90;;;;;;5020425;28;20504;-65
2021/08/11 07:57:47;;;;;;;11.32;5.90;;;23.90;99.90;;;;;;5029953;28;20124;-65
2021/08/11 08:00:17;;;;;;;9.98;5.10;;;24.00;99.90;;;;;;5029614;28;20111;-65
2021/08/11 08:02:44;;;;;;;8.77;4.88;;;24.30;99.90;;;;;;5038646;28;20412;-65
2021/08/11 08:05:13;;;;;;;11.02;5.38;;;24.50;99.90;;;;;;5048817;28;20363;-66
2021/08/11 08:07:40;;;;;;;9.20;5.20;;;24.70;99.90;;;;;;5044710;28;20040;-65
2021/08/11 08:10:09;;;;;;;11.27;5.05;;;24.40;99.90;;;;;;5047039;28;20047;-65
2021/08/11 08:12:42;;;;;;;9.32;4.43;;;24.50;99.90;;;;;;5046999;28;20047;-65
2021/08/11 08:15:12;;;;;;;9.23;4.63;;;24.70;99.90;;;;;;5033986;28;20033;-65
2021/08/11 08:17:40;;;;;;;12.68;4.95;;;24.60;99.90;;;;;;5028047;28;20049;-65
2021/08/11 08:20:17;;;;;;;10.23;4.75;;;24.80;99.90;;;;;;5027597;28;20054;-65
2021/08/11 08:22:48;;;;;;;7.53;4.05;;;25.10;99.90;;;;;;5020881;28;20507;-65
2021/08/11 08:25:20;;;;;;;9.02;5.07;;;24.90;99.90;;;;;;5026565;28;20111;-65
2021/08/11 08:27:53;;;;;;;11.03;6.03;;;24.90;99.90;;;;;;5019402;28;20045;-65
2021/08/11 08:30:42;;;;;;;10.88;5.70;;;25.10;99.90;;;;;;5017260;28;20284;-65
2021/08/11 08:33:09;;;;;;;8.57;5.05;;;25.30;99.90;;;;;;5031271;28;20069;-65
2021/08/11 08:35:37;;;;;;;8.55;5.38;;;25.30;99.90;;;;;;5038446;28;20051;-65
2021/08/11 08:38:05;;;;;;;6.78;4.43;;;25.20;99.90;;;;;;5031827;28;20128;-65
2021/08/11 08:40:38;;;;;;;9.55;5.55;;;25.20;99.90;;;;;;5038734;28;20136;-65
2021/08/11 08:43:07;;;;;;;11.30;5.82;;;25.10;99.90;;;;;;5038141;28;20496;-65
2021/08/11 08:45:35;;;;;;;11.48;5.70;;;24.90;99.90;;;;;;5045371;28;20565;-64
2021/08/11 08:48:04;;;;;;;11.13;5.03;;;24.90;99.90;;;;;;5028907;28;20611;-64
2021/08/11 08:50:33;;;;;;;10.20;6.18;;;24.90;99.90;;;;;;5036570;28;20046;-65
2021/08/11 08:53:03;;;;;;;10.32;6.13;;;25.00;99.90;;;;;;5028816;28;20530;-65
2021/08/11 08:55:32;;;;;;;14.98;6.47;;;25.10;99.90;;;;;;5034893;28;20511;-67
2021/08/11 08:58:02;;;;;;;10.93;5.78;;;25.40;99.90;;;;;;5030300;28;20065;-65
2021/08/11 09:00:32;;;;;;;13.48;6.20;;;25.80;99.90;;;;;;5042351;28;20045;-66
2021/08/11 09:02:59;;;;;;;13.75;5.97;;;26.00;99.90;;;;;;5044982;28;20038;-65
2021/08/11 09:05:28;;;;;;;10.70;5.43;;;25.90;99.90;;;;;;5033265;28;20049;-65
2021/08/11 09:07:55;;;;;;;9.48;6.00;;;25.90;99.90;;;;;;5031243;28;20128;-65
2021/08/11 09:10:27;;;;;;;12.95;4.97;;;25.70;99.90;;;;;;5037325;28;20045;-66
2021/08/11 09:13:07;;;;;;;10.40;4.65;;;25.90;99.90;;;;;;5039219;28;20091;-64
2021/08/11 09:15:45;;;;;;;11.23;4.78;;;26.00;99.90;;;;;;5043617;28;20514;-65
2021/08/11 09:18:26;;;;;;;10.48;4.95;;;26.20;99.90;;;;;;5042976;28;20145;-65
2021/08/11 09:20:59;;;;;;;7.97;4.60;;;26.30;99.90;;;;;;5045844;28;20439;-65
2021/08/11 09:23:46;;;;;;;9.07;4.55;;;26.20;99.90;;;;;;5046630;28;20049;-65
2021/08/11 09:26:16;;;;;;;9.80;4.55;;;25.70;99.90;;;;;;5045597;28;20161;-66
2021/08/11 09:28:46;;;;;;;9.30;4.22;;;25.50;99.90;;;;;;5048314;28;20136;-66
2021/08/11 09:31:25;;;;;;;7.10;4.18;;;25.30;99.90;;;;;;5033721;28;20045;-64
2021/08/11 09:33:55;;;;;;;7.18;4.55;;;25.20;99.90;;;;;;5030179;28;20508;-66
2021/08/11 09:36:22;;;;;;;8.07;4.43;;;25.30;99.90;;;;;;5032541;28;20057;-63
2021/08/11 09:38:55;;;;;;;8.23;5.43;;;25.40;99.90;;;;;;5036863;28;20128;-63
2021/08/11 09:41:24;;;;;;;10.30;5.78;;;25.70;99.90;;;;;;5026022;28;20549;-64
2021/08/11 09:44:09;;;;;;;9.50;4.50;;;26.00;99.90;;;;;;5013734;28;20049;-66
2021/08/11 09:46:39;;;;;;;10.27;4.47;;;26.20;99.90;;;;;;5020027;28;20128;-65
2021/08/11 09:49:20;;;;;;;9.45;4.60;;;26.30;99.90;;;;;;5032968;28;20037;-66
2021/08/11 09:52:03;;;;;;;7.03;4.47;;;26.30;99.90;;;;;;5034911;28;20033;-66
2021/08/11 09:54:32;;;;;;;6.82;4.10;;;26.20;99.90;;;;;;5034275;28;20053;-66
2021/08/11 09:57:00;;;;;;;8.90;4.45;;;26.20;99.90;;;;;;5040914;28;20037;-66
2021/08/11 09:59:27;;;;;;;8.55;4.18;;;26.20;99.90;;;;;;5047754;28;20041;-66
2021/08/11 10:02:16;;;;;;;12.95;4.30;;;25.80;99.90;;;;;;5033660;28;20130;-66
2021/08/11 10:04:43;;;;;;;9.88;5.13;;;25.60;99.90;;;;;;5035239;28;20629;-66
2021/08/11 10:07:11;;;;;;;8.88;4.30;;;25.70;99.90;;;;;;5029719;28;20047;-65
2021/08/11 10:09:40;;;;;;;6.32;3.45;;;25.70;99.90;;;;;;5037721;28;20055;-65
2021/08/11 10:12:29;;;;;;;7.18;4.07;;;25.80;99.90;;;;;;5043706;28;20033;-66
2021/08/11 10:14:58;;;;;;;7.43;3.85;;;25.70;99.90;;;;;;5039572;28;20561;-64
2021/08/11 10:17:35;;;;;;;7.80;3.85;;;25.80;99.90;;;;;;5023961;28;20558;-64
2021/08/11 10:20:06;;;;;;;7.75;3.80;;;25.50;99.90;;;;;;5040619;28;20044;-64
2021/08/11 10:22:37;;;;;;;8.18;3.63;;;25.70;99.90;;;;;;5043533;28;20228;-64
2021/08/11 10:25:06;;;;;;;9.40;4.60;;;25.80;99.90;;;;;;5043435;28;20116;-65
2021/08/11 10:27:34;;;;;;;8.70;3.83;;;25.70;99.90;;;;;;5044649;28;20353;-65
2021/08/11 10:30:02;;;;;;;10.13;4.05;;;25.90;99.90;;;;;;5043279;28;20065;-64
2021/08/11 10:32:31;;;;;;;5.53;3.47;;;25.80;99.90;;;;;;5040076;28;20055;-64
2021/08/11 10:35:02;;;;;;;8.95;3.67;;;26.00;99.90;;;;;;5041256;28;20488;-64
2021/08/11 10:37:29;;;;;;;7.43;4.00;;;26.00;99.90;;;;;;5042291;28;20048;-64
2021/08/11 10:40:00;;;;;;;7.22;3.85;;;26.10;99.90;;;;;;5032773;28;20049;-64
2021/08/11 10:42:29;;;;;;;7.57;3.80;;;26.40;99.90;;;;;;5033347;28;20136;-64
2021/08/11 10:44:59;;;;;;;7.18;3.28;;;26.50;99.90;;;;;;5033243;28;20065;-64
2021/08/11 10:47:32;;;;;;;5.50;3.70;;;26.90;99.90;;;;;;5030918;28;20164;-65
2021/08/11 10:50:05;;;;;;;6.72;3.47;;;27.00;99.90;;;;;;5033098;28;20042;-64
2021/08/11 10:52:33;;;;;;;7.22;3.40;;;27.20;99.90;;;;;;5011916;28;20584;-65
2021/08/11 10:55:05;;;;;;;7.45;4.00;;;27.20;99.90;;;;;;5022888;28;20052;-65
2021/08/11 11:00:10;;;;;;;6.78;2.97;;;27.90;99.90;;;;;;5045934;28;20048;-65
2021/08/11 11:02:41;;;;;;;5.88;3.42;;;28.30;99.90;;;;;;5039721;28;20049;-65
2021/08/11 11:05:25;;;;;;;6.78;3.53;;;28.70;99.90;;;;;;5047332;28;20051;-65
2021/08/11 11:08:14;;;;;;;11.55;4.03;;;29.10;99.90;;;;;;5042226;28;20125;-64
2021/08/11 11:10:46;;;;;;;8.38;3.80;;;29.60;99.90;;;;;;5038444;28;20049;-65
2021/08/11 11:13:26;;;;;;;5.97;3.15;;;29.80;99.90;;;;;;5043171;28;21218;-65
2021/08/11 11:15:55;;;;;;;11.95;3.45;;;29.40;99.90;;;;;;5034728;28;20068;-66
2021/08/11 11:18:23;;;;;;;5.85;3.13;;;29.30;99.90;;;;;;5037274;28;20164;-64
2021/08/11 11:20:57;;;;;;;5.65;3.17;;;29.70;99.90;;;;;;5045020;28;20044;-65
2021/08/11 11:23:40;;;;;;;5.75;3.40;;;30.00;99.90;;;;;;5038214;28;20464;-64
2021/08/11 11:26:31;;;;;;;5.88;3.10;;;30.10;99.90;;;;;;5026324;28;20056;-64
2021/08/11 11:29:01;;;;;;;5.53;3.10;;;30.60;99.90;;;;;;5029063;28;20055;-64
2021/08/11 11:31:45;;;;;;;6.70;3.08;;;30.90;99.90;;;;;;5035811;28;20815;-65
2021/08/11 11:34:18;;;;;;;5.43;3.03;;;30.70;99.90;;;;;;5046931;28;20048;-65
2021/08/11 11:36:56;;;;;;;5.20;3.00;;;30.30;99.90;;;;;;5038323;28;20034;-65
2021/08/11 11:39:28;;;;;;;6.88;3.42;;;30.00;99.90;;;;;;5046842;28;20048;-65
2021/08/11 11:42:07;;;;;;;6.97;3.38;;;29.80;99.90;;;;;;5039814;28;20137;-65
2021/08/11 11:44:41;;;;;;;6.32;3.63;;;29.70;99.90;;;;;;5030552;28;20065;-65
2021/08/11 11:47:17;;;;;;;7.35;3.85;;;29.40;99.90;;;;;;5028200;28;20094;-65
2021/08/11 11:49:45;;;;;;;5.95;3.38;;;29.40;99.90;;;;;;5020220;28;20485;-65
2021/08/11 11:52:15;;;;;;;7.63;3.30;;;29.50;99.90;;;;;;5022776;28;20041;-65
2021/08/11 11:54:52;;;;;;;8.07;3.80;;;29.50;99.90;;;;;;5030926;28;20042;-65
2021/08/11 11:57:19;;;;;;;6.75;3.35;;;29.20;99.90;;;;;;5030161;28;20044;-65
2021/08/11 11:59:49;;;;;;;8.68;3.72;;;29.10;99.90;;;;;;5047919;28;20086;-65
2021/08/11 12:02:21;;;;;;;7.30;3.30;;;29.20;99.90;;;;;;5046607;28;20048;-65
2021/08/11 12:05:04;;;;;;;7.60;3.53;;;29.50;99.90;;;;;;5049252;28;20403;-65
2021/08/11 12:07:33;;;;;;;6.70;3.30;;;29.40;99.90;;;;;;5041511;28;20552;-65
2021/08/11 12:10:02;;;;;;;6.15;3.53;;;29.30;99.90;;;;;;5038714;28;20037;-65
2021/08/11 12:12:30;;;;;;;6.72;3.20;;;29.80;99.90;;;;;;5048858;28;20041;-65
2021/08/11 12:15:17;;;;;;;6.05;2.92;;;30.70;99.90;;;;;;5047007;28;20495;-65
2021/08/11 12:17:45;;;;;;;8.40;3.35;;;31.70;99.90;;;;;;5033356;28;20041;-65
2021/08/11 12:20:34;;;;;;;6.60;3.20;;;32.40;99.90;;;;;;5043605;28;20487;-65
2021/08/11 12:23:24;;;;;;;8.10;3.28;;;32.30;99.90;;;;;;5033947;28;20037;-65
2021/08/11 12:25:55;;;;;;;5.97;3.20;;;32.60;99.90;;;;;;5038056;28;20052;-65
2021/08/11 12:28:23;;;;;;;;;;;33.10;99.90;;;;;;5041295;28;20431;-65
2021/08/11 12:30:58;;;;;;;7.35;3.50;;;32.90;99.90;;;;;;5041362;28;19925;-65
2021/08/11 12:33:28;;;;;;;9.15;4.53;;;32.70;99.90;;;;;;5043980;28;20060;-65
2021/08/11 12:35:57;;;;;;;6.35;3.20;;;33.10;99.90;;;;;;5040460;28;20041;-65
2021/08/11 12:38:42;;;;;;;6.15;3.00;;;33.50;99.90;;;;;;5041704;28;20057;-65
2021/08/11 12:41:15;;;;;;;6.95;3.00;;;33.30;99.90;;;;;;5036770;28;20098;-65
2021/08/11 12:43:43;;;;;;;5.28;2.95;;;33.50;99.60;;;;;;5022043;28;20137;-65
2021/08/11 12:46:10;;;;;;;5.13;2.90;;;33.60;99.50;;;;;;5032508;28;20044;-64
2021/08/11 12:48:38;;;;;;;6.68;2.97;;;33.90;98.90;;;;;;5033815;28;20054;-64
2021/08/11 12:51:24;;;;;;;5.85;2.83;;;33.60;98.80;;;;;;5038584;28;20040;-64
2021/08/11 12:54:06;;;;;;;6.95;2.97;;;33.80;99.10;;;;;;5027461;28;20041;-64
2021/08/11 12:56:33;;;;;;;;;;;33.80;98.10;;;;;;5039284;28;20037;-64
2021/08/11 12:59:05;;;;;;;6.72;2.67;;;33.50;98.00;;;;;;5036543;28;20303;-64
2021/08/11 13:01:42;;;;;;;5.68;2.67;;;33.30;98.10;;;;;;5019872;28;20382;-64
2021/08/11 13:04:23;;;;;;;5.33;2.67;;;32.80;98.20;;;;;;5029151;28;20144;-64
2021/08/11 13:06:52;;;;;;;4.93;2.40;;;32.30;99.20;;;;;;5021606;28;20284;-64
2021/08/11 13:09:24;;;;;;;5.28;2.30;;;32.70;98.50;;;;;;5033151;28;20038;-64